createdAt,value
2019-02-07T00:01:43.374Z,3.52
2019-02-07T00:04:13.117Z,3.60
2019-02-07T00:06:42.719Z,4.20
2019-02-07T00:26:35.331Z,1.52
2019-02-07T00:29:05.233Z,1.92
2019-02-07T00:31:34.768Z,1.70
2019-02-07T00:34:04.496Z,1.70
2019-02-07T00:36:34.116Z,1.12
2019-02-07T00:39:04.143Z,1.25
2019-02-07T00:41:33.781Z,1.37
2019-02-07T00:44:03.827Z,1.02
2019-02-07T00:46:33.399Z,1.20
2019-02-07T00:49:03.071Z,1.45
2019-02-07T00:51:32.823Z,15.93
2019-02-07T00:54:02.444Z,19.05
2019-02-07T00:56:32.256Z,5.92
2019-02-07T00:59:01.952Z,2.72
2019-02-07T01:01:31.540Z,3.10
2019-02-07T01:04:01.287Z,3.60
2019-02-07T01:06:30.854Z,4.33
2019-02-07T01:09:00.409Z,1.75
2019-02-07T01:11:30.243Z,2.00
2019-02-07T01:13:59.722Z,2.80
2019-02-07T01:16:29.411Z,1.35
2019-02-07T01:18:59.167Z,1.27
2019-02-07T01:21:28.857Z,2.20
2019-02-07T01:23:58.382Z,4.53
2019-02-07T01:26:28.161Z,10.18
2019-02-07T01:28:57.897Z,16.60
2019-02-07T01:31:27.493Z,20.27
2019-02-07T01:33:56.997Z,10.25
2019-02-07T01:36:26.796Z,7.05
2019-02-07T01:38:56.606Z,5.83
2019-02-07T01:41:26.235Z,6.17
2019-02-07T01:43:55.818Z,3.70
2019-02-07T01:46:25.397Z,7.20
2019-02-07T01:48:55.250Z,7.50
2019-02-07T01:51:25.161Z,4.87
2019-02-07T01:53:54.695Z,14.87
2019-02-07T01:56:24.501Z,5.78
2019-02-07T01:58:54.159Z,23.02
2019-02-07T02:01:24.012Z,11.80
2019-02-07T02:03:53.635Z,6.50
2019-02-07T02:06:23.291Z,9.78
2019-02-07T02:08:52.888Z,11.85
2019-02-07T02:28:44.869Z,5.20
2019-02-07T02:31:14.666Z,17.55
2019-02-07T02:33:44.177Z,8.15
2019-02-07T02:36:13.778Z,9.15
2019-02-07T02:38:43.427Z,7.42
2019-02-07T02:41:13.103Z,11.20
2019-02-07T02:43:42.731Z,10.58
2019-02-07T02:46:12.459Z,10.30
2019-02-07T02:48:42.160Z,16.93
2019-02-07T02:51:11.684Z,13.00
2019-02-07T02:53:41.454Z,6.50
2019-02-07T02:56:11.265Z,6.60
2019-02-07T02:58:40.937Z,8.63
2019-02-07T03:01:41.033Z,11.65
2019-02-07T03:04:15.932Z,6.78
2019-02-07T03:06:50.788Z,8.35
2019-02-07T03:10:23.739Z,6.47
2019-02-07T03:13:12.568Z,7.00
2019-02-07T03:15:50.022Z,8.10
2019-02-07T03:18:22.861Z,6.83
2019-02-07T03:20:57.856Z,6.78
2019-02-07T03:23:32.724Z,6.47
2019-02-07T03:26:07.480Z,7.05
2019-02-07T03:29:42.092Z,7.28
2019-02-07T03:32:17.661Z,6.67
2019-02-07T03:34:52.390Z,7.83
2019-02-07T03:37:32.969Z,10.15
2019-02-07T03:40:07.721Z,11.50
2019-02-07T03:42:44.373Z,10.63
2019-02-07T03:45:22.204Z,11.95
2019-02-07T03:47:57.012Z,10.13
2019-02-07T03:50:34.810Z,8.33
2019-02-07T03:54:13.538Z,9.28
2019-02-07T03:56:52.062Z,7.87
2019-02-07T04:01:30.847Z,8.63
2019-02-07T04:04:04.572Z,8.53
2019-02-07T04:07:37.305Z,8.85
2019-02-07T04:10:12.258Z,8.88
2019-02-07T04:12:47.102Z,8.40
2019-02-07T04:15:21.731Z,10.18
2019-02-07T04:18:05.491Z,8.10
2019-02-07T04:20:48.264Z,8.05
2019-02-07T04:23:22.937Z,8.80
2019-02-07T04:26:01.356Z,8.98
2019-02-07T04:28:34.991Z,7.90
2019-02-07T04:31:12.755Z,8.93
2019-02-07T04:33:48.608Z,8.25
2019-02-07T04:36:28.082Z,8.43
2019-02-07T04:39:09.634Z,8.00
2019-02-07T04:42:19.597Z,8.65
2019-02-07T04:44:54.156Z,9.25
2019-02-07T04:47:29.855Z,8.63
2019-02-07T04:50:04.579Z,9.13
2019-02-07T04:52:45.452Z,9.90
2019-02-07T04:55:32.235Z,9.98
2019-02-07T04:58:11.888Z,9.80
2019-02-07T05:00:45.685Z,10.38
2019-02-07T05:04:20.654Z,9.73
2019-02-07T05:06:57.631Z,9.40
2019-02-07T05:09:32.429Z,8.50
2019-02-07T05:12:07.043Z,8.80
2019-02-07T05:35:11.127Z,10.45
2019-02-07T05:38:47.032Z,9.98
2019-02-07T05:41:25.017Z,9.95
2019-02-07T05:44:30.416Z,13.75
2019-02-07T05:49:10.387Z,11.93
2019-02-07T05:51:49.208Z,10.98
2019-02-07T05:54:26.748Z,12.23
2019-02-07T05:57:00.643Z,16.32
2019-02-07T06:17:02.802Z,22.87
2019-02-07T06:19:30.289Z,18.55
2019-02-07T06:22:18.979Z,20.55
2019-02-07T06:25:00.424Z,23.22
2019-02-07T06:28:37.731Z,21.17
2019-02-07T06:31:13.515Z,21.80
2019-02-07T06:34:07.717Z,24.43
2019-02-07T06:36:45.167Z,24.63
2019-02-07T06:39:20.155Z,22.60
2019-02-07T06:41:55.042Z,25.00
2019-02-07T06:44:29.878Z,39.00
2019-02-07T06:47:13.283Z,54.40
2019-02-07T06:49:44.422Z,53.58
2019-02-07T06:53:17.284Z,47.27
2019-02-07T06:55:51.872Z,44.45
2019-02-07T06:59:24.341Z,37.03
2019-02-07T07:04:02.498Z,37.25
2019-02-07T07:06:54.403Z,62.70
2019-02-07T07:09:28.086Z,68.17
2019-02-07T07:12:05.863Z,60.83
2019-02-07T07:14:40.299Z,61.48
2019-02-07T07:17:25.437Z,65.03
2019-02-07T07:19:53.833Z,56.25
2019-02-07T07:22:28.607Z,53.05
2019-02-07T07:27:09.780Z,48.80
2019-02-07T07:29:44.597Z,37.58
2019-02-07T07:32:18.273Z,27.77
2019-02-07T07:34:52.994Z,17.65
2019-02-07T07:37:27.806Z,16.95
2019-02-07T07:40:07.431Z,16.85
2019-02-07T07:42:42.275Z,12.40
2019-02-07T07:45:21.364Z,10.20
2019-02-07T07:48:58.114Z,9.03
2019-02-07T07:51:37.831Z,9.38
2019-02-07T07:54:46.901Z,8.93
2019-02-07T07:57:21.717Z,8.70
2019-02-07T08:00:01.190Z,9.55
2019-02-07T08:02:37.232Z,9.80
2019-02-07T08:05:13.280Z,9.50
2019-02-07T08:09:54.647Z,9.75
2019-02-07T08:12:29.484Z,10.68
2019-02-07T08:15:04.084Z,10.98
2019-02-07T08:17:47.704Z,10.00
2019-02-07T08:37:45.592Z,13.80
2019-02-07T08:40:25.274Z,11.88
2019-02-07T08:42:59.901Z,11.68
2019-02-07T08:45:35.652Z,11.93
2019-02-07T08:48:17.514Z,13.43
2019-02-07T08:50:58.452Z,12.63
2019-02-07T08:53:39.027Z,12.60
2019-02-07T08:56:15.763Z,13.83
2019-02-07T08:58:50.624Z,13.68
2019-02-07T09:01:24.387Z,16.12
2019-02-07T09:06:04.161Z,16.52
2019-02-07T09:08:43.702Z,15.75
2019-02-07T09:11:18.736Z,15.40
2019-02-07T09:13:53.786Z,15.65
2019-02-07T09:17:28.664Z,16.42
2019-02-07T09:22:08.557Z,14.05
2019-02-07T09:24:47.541Z,13.25
2019-02-07T09:28:27.277Z,9.28
2019-02-07T09:31:11.104Z,8.88
2019-02-07T09:33:48.802Z,8.18
2019-02-07T09:36:22.679Z,7.78
2019-02-07T09:39:59.281Z,7.67
2019-02-07T09:42:37.159Z,7.37
2019-02-07T09:45:27.967Z,7.05
2019-02-07T09:48:03.625Z,7.70
2019-02-07T09:51:40.832Z,7.60
2019-02-07T09:54:22.503Z,7.67
2019-02-07T09:59:03.583Z,8.05
2019-02-07T10:02:36.900Z,8.40
2019-02-07T10:05:12.775Z,8.60
2019-02-07T10:07:54.727Z,8.75
2019-02-07T10:10:31.508Z,8.93
2019-02-07T10:13:06.272Z,9.25
2019-02-07T10:15:55.956Z,11.20
2019-02-07T10:18:33.277Z,9.63
2019-02-07T10:21:06.267Z,9.40
2019-02-07T10:23:41.062Z,8.98
2019-02-07T10:27:13.524Z,9.48
2019-02-07T10:29:48.287Z,7.78
2019-02-07T10:32:24.120Z,8.40
2019-02-07T10:35:11.034Z,8.45
2019-02-07T10:37:45.948Z,10.60
2019-02-07T10:41:19.860Z,10.05
2019-02-07T10:43:54.367Z,8.95
2019-02-07T10:46:28.065Z,9.73
2019-02-07T10:51:09.440Z,8.55
2019-02-07T10:53:45.749Z,9.03
2019-02-07T10:56:51.923Z,8.78
2019-02-07T11:00:24.429Z,10.08
2019-02-07T11:02:59.639Z,10.03
2019-02-07T11:07:41.324Z,9.50
2019-02-07T11:10:20.095Z,9.20
2019-02-07T11:13:10.775Z,8.20
2019-02-07T11:15:46.228Z,9.63
2019-02-07T11:18:38.890Z,10.48
2019-02-07T11:21:13.769Z,9.70
2019-02-07T11:23:48.494Z,9.38
2019-02-07T11:28:26.945Z,9.28
2019-02-07T11:31:00.573Z,9.53
2019-02-07T11:34:03.480Z,9.13
2019-02-07T11:36:37.287Z,9.88
2019-02-07T11:40:18.875Z,9.45
2019-02-07T11:44:57.552Z,10.28
2019-02-07T11:48:30.729Z,9.48
2019-02-07T11:51:15.312Z,9.63
2019-02-07T12:11:28.616Z,7.22
2019-02-07T12:14:17.765Z,8.30
2019-02-07T12:17:54.135Z,8.58
2019-02-07T12:39:54.454Z,13.05
2019-02-07T12:42:29.240Z,8.00
2019-02-07T13:02:30.946Z,8.53
2019-02-07T13:40:52.272Z,9.53
2019-02-07T13:43:27.040Z,12.95
2019-02-07T13:46:05.926Z,11.18
2019-02-07T13:48:42.725Z,10.85
2019-02-07T13:52:17.153Z,10.98
2019-02-07T13:55:55.895Z,11.83
2019-02-07T14:00:33.278Z,9.80
2019-02-07T14:03:07.070Z,9.85
2019-02-07T14:05:41.798Z,10.58
2019-02-07T14:08:19.758Z,9.78
2019-02-07T14:10:54.436Z,9.40
2019-02-07T14:30:56.372Z,9.55
2019-02-07T14:33:31.166Z,9.65
2019-02-07T14:53:20.829Z,9.65
2019-02-07T15:13:10.164Z,13.62
2019-02-07T15:15:39.944Z,14.13
2019-02-07T15:18:09.627Z,12.25
2019-02-07T15:20:39.567Z,16.77
2019-02-07T15:23:09.153Z,15.72
2019-02-07T15:25:38.818Z,14.15
2019-02-07T15:28:08.661Z,16.15
2019-02-07T15:30:38.208Z,16.27
2019-02-07T15:33:07.663Z,15.43
2019-02-07T15:35:40.114Z,18.15
2019-02-07T15:38:09.863Z,18.98
2019-02-07T15:40:39.511Z,15.48
2019-02-07T15:43:09.452Z,16.93
2019-02-07T15:45:39.262Z,18.20
2019-02-07T15:48:09.140Z,19.45
2019-02-07T15:50:39.011Z,21.00
2019-02-07T15:53:08.950Z,22.10
2019-02-07T15:55:38.809Z,31.27
2019-02-07T15:58:08.655Z,24.52
2019-02-07T16:00:43.524Z,27.25
2019-02-07T16:03:18.822Z,24.55
2019-02-07T16:05:48.531Z,24.65
2019-02-07T16:08:18.239Z,28.15
2019-02-07T16:10:48.153Z,27.00
2019-02-07T16:13:17.725Z,26.80
2019-02-07T16:15:47.345Z,26.95
2019-02-07T16:18:17.225Z,27.22
2019-02-07T16:20:48.867Z,26.42
2019-02-07T16:23:16.263Z,28.87
2019-02-07T16:25:46.048Z,29.98
2019-02-07T16:28:15.641Z,36.40
2019-02-07T16:30:45.385Z,35.68
2019-02-07T16:33:15.680Z,32.98
2019-02-07T16:35:45.321Z,31.73
2019-02-07T16:38:14.789Z,29.95
2019-02-07T16:40:44.362Z,30.65
2019-02-07T16:43:14.734Z,31.05
2019-02-07T16:45:44.432Z,32.80
2019-02-07T16:48:14.251Z,32.75
2019-02-07T16:50:43.901Z,34.98
2019-02-07T16:53:13.564Z,44.48
2019-02-07T16:55:43.544Z,40.63
2019-02-07T16:58:13.140Z,32.63
2019-02-07T17:00:43.060Z,26.27
2019-02-07T17:03:12.849Z,27.67
2019-02-07T17:05:42.475Z,25.27
2019-02-07T17:08:11.981Z,628.95
2019-02-07T17:10:41.962Z,586.70
2019-02-07T17:13:11.900Z,461.68
2019-02-07T17:15:41.642Z,501.35
2019-02-07T17:18:11.704Z,237.05
2019-02-07T17:20:41.437Z,602.45
2019-02-07T17:23:11.059Z,700.92
2019-02-07T17:25:40.965Z,348.48
2019-02-07T17:28:10.510Z,788.30
2019-02-07T17:30:40.195Z,990.95
2019-02-07T17:33:10.043Z,591.50
2019-02-07T17:35:39.679Z,999.90
2019-02-07T17:38:12.357Z,999.90
2019-02-07T17:40:41.988Z,999.90
2019-02-07T17:43:11.509Z,999.90
2019-02-07T17:45:41.210Z,999.90
2019-02-07T17:48:10.697Z,987.00
2019-02-07T17:50:40.623Z,955.52
2019-02-07T17:53:10.376Z,636.67
2019-02-07T17:55:40.101Z,983.15
2019-02-07T17:58:09.832Z,941.77
2019-02-07T18:00:46.487Z,911.60
2019-02-07T18:03:15.881Z,776.42
2019-02-07T18:05:45.658Z,637.55
2019-02-07T18:08:15.294Z,35.05
2019-02-07T18:10:45.107Z,36.30
2019-02-07T18:13:14.887Z,30.05
2019-02-07T18:15:44.397Z,39.38
2019-02-07T18:18:13.864Z,21.93
2019-02-07T18:20:43.779Z,24.30
2019-02-07T18:23:13.482Z,25.92
2019-02-07T18:25:43.112Z,24.63
2019-02-07T18:28:12.822Z,24.90
2019-02-07T18:30:42.558Z,25.27
2019-02-07T18:33:12.307Z,25.02
2019-02-07T18:35:42.391Z,24.75
2019-02-07T18:38:12.086Z,24.02
2019-02-07T18:40:41.542Z,25.15
2019-02-07T18:43:11.368Z,25.08
2019-02-07T18:45:40.763Z,24.47
2019-02-07T18:48:10.606Z,22.22
2019-02-07T18:50:40.479Z,20.77
2019-02-07T18:53:10.011Z,19.65
2019-02-07T18:55:39.842Z,18.95
2019-02-07T18:58:09.321Z,19.25
2019-02-07T19:00:39.276Z,19.95
2019-02-07T19:03:09.051Z,18.05
2019-02-07T19:05:38.743Z,17.48
2019-02-07T19:08:08.625Z,17.45
2019-02-07T19:10:38.413Z,17.80
2019-02-07T19:13:07.996Z,17.80
2019-02-07T19:15:42.414Z,17.02
2019-02-07T19:18:11.902Z,16.87
2019-02-07T19:20:41.615Z,35.03
2019-02-07T19:23:11.575Z,45.43
2019-02-07T19:25:41.160Z,36.05
2019-02-07T19:28:10.906Z,19.85
2019-02-07T19:30:40.601Z,20.32
2019-02-07T19:33:10.190Z,23.67
2019-02-07T19:35:39.793Z,21.60
2019-02-07T19:38:09.647Z,23.55
2019-02-07T19:40:39.299Z,23.50
2019-02-07T19:43:09.051Z,23.38
2019-02-07T19:45:38.734Z,23.40
2019-02-07T19:48:08.245Z,23.47
2019-02-07T19:50:37.974Z,25.70
2019-02-07T19:53:07.771Z,31.95
2019-02-07T19:55:37.764Z,32.30
2019-02-07T19:58:07.597Z,38.25
2019-02-07T20:00:39.485Z,39.48
2019-02-07T20:03:07.364Z,47.40
2019-02-07T20:05:36.935Z,48.92
2019-02-07T20:08:06.888Z,50.52
2019-02-07T20:10:36.660Z,52.67
2019-02-07T20:13:06.501Z,46.95
2019-02-07T20:15:38.310Z,46.25
2019-02-07T20:18:08.927Z,47.33
2019-02-07T20:20:38.890Z,38.42
2019-02-07T20:23:08.545Z,36.17
2019-02-07T20:25:38.508Z,35.45
2019-02-07T20:28:08.111Z,33.98
2019-02-07T20:30:39.443Z,34.10
2019-02-07T20:33:09.814Z,34.35
2019-02-07T20:35:39.451Z,33.40
2019-02-07T20:38:10.075Z,35.05
2019-02-07T20:40:39.853Z,34.88
2019-02-07T20:43:10.023Z,33.08
2019-02-07T20:45:39.767Z,33.30
2019-02-07T20:48:10.035Z,32.10
2019-02-07T20:50:39.516Z,32.50
2019-02-07T20:53:09.406Z,31.10
2019-02-07T20:55:39.130Z,29.15
2019-02-07T20:58:08.765Z,30.32
2019-02-07T21:00:39.376Z,29.00
2019-02-07T21:03:09.160Z,29.90
2019-02-07T21:05:38.997Z,29.23
2019-02-07T21:08:08.668Z,28.35
2019-02-07T21:10:38.486Z,26.60
2019-02-07T21:13:07.949Z,42.58
2019-02-07T21:15:37.605Z,49.50
2019-02-07T21:18:07.350Z,46.15
2019-02-07T21:20:36.932Z,42.78
2019-02-07T21:23:06.838Z,37.03
2019-02-07T21:25:42.591Z,35.78
2019-02-07T21:28:12.424Z,30.68
2019-02-07T21:30:41.952Z,27.32
2019-02-07T21:33:11.641Z,49.33
2019-02-07T21:35:41.249Z,33.48
2019-02-07T21:38:11.794Z,29.42
2019-02-07T21:40:41.591Z,28.23
2019-02-07T21:43:11.238Z,32.23
2019-02-07T21:45:40.812Z,35.40
2019-02-07T21:48:11.484Z,34.30
2019-02-07T21:50:41.072Z,33.35
2019-02-07T21:53:10.662Z,31.35
2019-02-07T21:55:40.326Z,29.42
2019-02-07T21:58:10.244Z,30.05
2019-02-07T22:00:41.720Z,28.42
2019-02-07T22:03:13.202Z,26.17
2019-02-07T22:05:43.210Z,25.72
2019-02-07T22:08:12.890Z,24.15
2019-02-07T22:10:42.638Z,23.42
2019-02-07T22:13:12.395Z,22.87
2019-02-07T22:15:41.946Z,19.42
2019-02-07T22:18:11.606Z,18.85
2019-02-07T22:20:41.406Z,22.65
2019-02-07T22:23:11.371Z,20.00
2019-02-07T22:25:41.021Z,18.85
2019-02-07T22:28:10.823Z,18.70
2019-02-07T22:30:40.600Z,17.27
2019-02-07T22:33:10.150Z,18.65
2019-02-07T22:35:39.789Z,17.25
2019-02-07T22:38:09.612Z,17.73
2019-02-07T22:40:39.156Z,17.52
2019-02-07T22:43:08.909Z,17.85
2019-02-07T22:45:38.864Z,17.70
2019-02-07T22:48:08.694Z,17.52
2019-02-07T22:50:38.695Z,17.65
2019-02-07T22:53:08.389Z,17.10
2019-02-07T22:55:38.051Z,16.48
2019-02-07T22:58:08.830Z,17.40
2019-02-07T23:00:50.251Z,16.93
2019-02-07T23:03:20.100Z,16.97
2019-02-07T23:05:49.681Z,16.95
2019-02-07T23:08:19.309Z,16.97
2019-02-07T23:10:48.967Z,17.82
2019-02-07T23:13:18.520Z,17.98
2019-02-07T23:15:48.025Z,17.87
2019-02-07T23:18:17.816Z,18.55
2019-02-07T23:20:47.598Z,19.05
2019-02-07T23:23:17.135Z,19.12
2019-02-07T23:25:46.923Z,18.75
2019-02-07T23:28:16.572Z,16.45
2019-02-07T23:30:46.319Z,16.82
2019-02-07T23:33:15.956Z,15.68
2019-02-07T23:35:45.503Z,15.23
2019-02-07T23:38:14.896Z,16.10
2019-02-07T23:40:44.747Z,15.93
2019-02-07T23:43:14.356Z,17.20
2019-02-07T23:45:44.068Z,16.40
2019-02-07T23:48:13.666Z,16.07
2019-02-07T23:50:43.283Z,16.02
2019-02-07T23:53:14.567Z,15.55
2019-02-07T23:55:42.584Z,16.95
2019-02-07T23:58:12.299Z,16.15
